Birch Creek GC
600 E Center St, Smithfield
Last Weather Update:02/23/2012 7:00:00 PM
Date
ETo
ETc
Rain
Irrigation
Req
Temp
Max
Temp
Min
Temp
Avg
Avg RH
Avg Wind
Avg Solar
inches
inches
incehs
inches
F
F
F
%
%
watts/m2
01/01/2012 0.03" 0.00" 0.00" 0.00" 39.0° 17.5° 26.5° 66.9% 2.9 MPH 105.3w/m2
01/02/2012 0.04" 0.00" 0.00" 0.00" 43.8° 21.4° 31.2° 62.2% 2.7 MPH 98.6w/m2
01/03/2012 0.05" 0.00" 0.00" 0.00" 51.0° 26.5° 36.9° 58.8% 3.4 MPH 100.7w/m2
01/04/2012 0.04" 0.00" 0.00" 0.00" 47.3° 22.2° 34.0° 63.5% 3.0 MPH 101.2w/m2
01/05/2012 0.04" 0.00" 0.00" 0.00" 48.9° 23.4° 35.4° 57.0% 3.2 MPH 98.0w/m2
01/06/2012 0.04" 0.00" 0.00" 0.00" 43.1° 26.0° 33.2° 84.7% 3.1 MPH 105.1w/m2
01/07/2012 0.02" 0.00" 0.07" -0.06" 31.8° 18.8° 27.4° 84.0% 4.2 MPH 58.3w/m2
01/08/2012 0.02" 0.00" 0.02" -0.02" 29.7° 17.8° 24.2° 82.1% 2.4 MPH 63.9w/m2
01/09/2012 0.03" 0.00" 0.00" 0.00" 34.4° 16.8° 24.9° 89.5% 2.7 MPH 110.7w/m2
01/10/2012 0.02" 0.00" 0.00" 0.00" 34.6° 16.9° 26.3° 79.0% 2.9 MPH 93.0w/m2
01/11/2012 0.04" 0.00" 0.00" 0.00" 31.1° 12.4° 24.4° 67.8% 4.3 MPH 117.6w/m2
01/12/2012 0.03" 0.00" 0.00" 0.00" 30.8° 7.1° 17.2° 65.4% 2.8 MPH 118.8w/m2
01/13/2012 0.03" 0.00" 0.00" 0.00" 36.6° 9.7° 22.5° 52.6% 2.9 MPH 116.0w/m2
01/14/2012 0.05" 0.00" 0.00" 0.00" 47.6° 20.4° 31.2° 44.4% 3.6 MPH 119.3w/m2
01/15/2012 0.08" 0.00" 0.00" 0.00" 48.9° 24.8° 40.1° 64.5% 6.6 MPH 35.8w/m2
01/16/2012 0.03" 0.00" 0.04" -0.03" 26.2° 9.5° 19.5° 55.5% 4.8 MPH 91.6w/m2
01/17/2012 0.04" 0.00" 0.01" -0.01" 29.5° 4.9° 18.2° 24.1% 4.7 MPH 120.0w/m2
01/18/2012 0.02" 0.00" 0.15" -0.12" 37.6° 24.5° 32.4° 86.1% 7.2 MPH 26.8w/m2
01/19/2012 0.03" 0.00" 0.66" -0.53" 44.6° 33.8° 38.9° 79.7% 6.4 MPH 28.0w/m2
01/20/2012 0.05" 0.00" 0.16" -0.13" 48.1° 34.3° 41.0° 81.7% 5.0 MPH 72.9w/m2
01/21/2012 0.02" 0.00" 0.30" -0.24" 47.0° 31.3° 36.6° 69.8% 6.2 MPH 9.6w/m2
01/22/2012 0.05" 0.00" 0.22" -0.18" 35.4° 22.7° 29.8° 73.4% 4.5 MPH 122.9w/m2
01/23/2012 0.02" 0.00" 0.11" -0.09" 34.3° 26.8° 29.6° 100.0% 2.2 MPH 52.5w/m2
01/24/2012 0.03" 0.00" 0.14" -0.11" 35.6° 17.8° 25.8° 80.4% 2.8 MPH 112.7w/m2
01/25/2012 0.02" 0.00" 0.00" 0.00" 39.9° 24.6° 31.7° 82.8% 2.9 MPH 73.4w/m2
01/26/2012 0.01" 0.00" 0.18" -0.14" 38.9° 32.5° 35.4° 67.6% 3.5 MPH 19.9w/m2
01/27/2012 0.05" 0.00" 0.00" 0.00" 34.8° 19.4° 27.2° 69.3% 3.1 MPH 140.2w/m2
01/28/2012 0.04" 0.00" 0.00" 0.00" 33.9° 15.5° 23.5° 62.2% 3.1 MPH 132.3w/m2
01/29/2012 0.04" 0.00" 0.00" 0.00" 36.4° 19.6° 27.0° 53.4% 3.0 MPH 112.4w/m2
01/30/2012 0.03" 0.00" 0.00" 0.00" 41.4° 24.8° 32.0° 81.1% 3.2 MPH 67.6w/m2
01/31/2012 0.04" 0.00" 0.00" 0.00" 42.4° 21.0° 30.0° 65.8% 3.3 MPH 132.2w/m2
Totals: 1.07" 0.00" 2.06" -1.65" 51.0° 4.9° 29.5° 69.5% 3.8 MPH 88.9w/m2